Time;durP1;ratioP1;P1;durP2;ratioP2;P2;SDS_P1;SDS_P2;PMS_P1;PMS_P2;Temp;Humidity;BMP_temperature;BMP_pressure;BME280_temperature;BME280_humidity;BME280_pressure;Samples;Min_cycle;Max_cycle;Signal;HPM_P1;HPM_P2
2022/04/28 00:01:53;;;;;;;11.53;9.23;;;7.30;99.90;;;;;;5075864;28;20550;-62
2022/04/28 00:04:19;;;;;;;14.77;9.03;;;7.10;99.90;;;;;;5075425;28;20668;-62
2022/04/28 00:06:44;;;;;;;12.57;8.67;;;7.00;99.90;;;;;;5074621;28;20186;-62
2022/04/28 00:09:10;;;;;;;11.50;9.00;;;7.10;99.90;;;;;;5075715;28;20265;-62
2022/04/28 00:11:36;;;;;;;12.77;9.03;;;7.20;99.90;;;;;;5075856;28;20289;-62
2022/04/28 00:14:02;;;;;;;13.23;9.10;;;7.20;99.90;;;;;;5075681;28;20704;-62
2022/04/28 00:16:28;;;;;;;11.60;9.17;;;7.20;99.90;;;;;;5075527;28;20677;-62
2022/04/28 00:18:54;;;;;;;15.90;8.87;;;7.20;99.90;;;;;;5075358;28;20174;-62
2022/04/28 00:21:20;;;;;;;12.80;8.93;;;7.30;99.90;;;;;;5075281;28;20177;-62
2022/04/28 00:23:46;;;;;;;13.80;9.07;;;7.30;99.90;;;;;;5075138;28;20205;-62
2022/04/28 00:26:12;;;;;;;12.37;8.53;;;7.20;99.90;;;;;;5075529;28;20173;-62
2022/04/28 00:28:38;;;;;;;14.77;9.73;;;7.20;99.90;;;;;;5075095;28;20578;-63
2022/04/28 00:31:04;;;;;;;12.90;9.70;;;7.20;99.90;;;;;;5075206;28;20201;-63
2022/04/28 00:33:30;;;;;;;14.33;9.90;;;7.20;99.90;;;;;;5074999;28;20193;-62
2022/04/28 00:35:56;;;;;;;16.37;10.13;;;7.20;99.90;;;;;;5075384;28;20211;-62
2022/04/28 00:38:22;;;;;;;17.20;11.07;;;7.10;99.90;;;;;;5075035;28;20570;-62
2022/04/28 00:40:48;;;;;;;13.23;10.17;;;7.00;99.90;;;;;;5075130;28;20173;-62
2022/04/28 00:43:19;;;;;;;14.17;10.23;;;6.90;99.90;;;;;;5073616;28;20276;-63
2022/04/28 00:45:46;;;;;;;13.20;10.33;;;7.00;99.90;;;;;;5075344;28;20173;-62
2022/04/28 00:50:59;;;;;;;14.23;10.03;;;6.80;99.90;;;;;;5074879;28;20563;-62
2022/04/28 00:53:28;;;;;;;15.43;11.07;;;6.70;99.90;;;;;;5074727;28;20225;-63
2022/04/28 00:55:54;;;;;;;15.93;11.23;;;6.50;99.90;;;;;;5074587;28;20209;-62
2022/04/28 00:58:20;;;;;;;20.40;12.37;;;6.40;99.90;;;;;;5074919;28;20182;-63
2022/04/28 01:00:46;;;;;;;17.37;12.57;;;6.30;99.90;;;;;;5074433;28;20282;-62
2022/04/28 01:03:11;;;;;;;15.47;11.43;;;6.30;99.90;;;;;;5074170;28;20578;-63
2022/04/28 01:05:37;;;;;;;17.77;11.30;;;6.20;99.90;;;;;;5073628;28;20635;-63
2022/04/28 01:08:03;;;;;;;18.27;11.57;;;6.10;99.90;;;;;;5074107;28;20185;-63
2022/04/28 01:10:29;;;;;;;17.53;11.13;;;6.00;99.90;;;;;;5073976;28;20206;-62
2022/04/28 01:12:55;;;;;;;15.70;10.97;;;6.00;99.90;;;;;;5074413;28;20194;-62
2022/04/28 01:15:21;;;;;;;13.67;10.90;;;5.90;99.90;;;;;;5074390;28;20182;-62
2022/04/28 01:17:47;;;;;;;15.40;10.60;;;5.90;99.90;;;;;;5074285;28;20181;-63
2022/04/28 01:20:12;;;;;;;14.30;10.20;;;6.00;99.90;;;;;;5073800;28;20170;-62
2022/04/28 01:22:38;;;;;;;16.40;10.70;;;6.10;99.90;;;;;;5073814;28;20550;-62
2022/04/28 01:25:07;;;;;;;15.17;9.23;;;6.10;99.90;;;;;;5074083;28;20212;-62
2022/04/28 01:27:33;;;;;;;16.30;10.83;;;6.20;99.90;;;;;;5074015;28;20178;-63
2022/04/28 01:30:00;;;;;;;19.80;11.07;;;6.30;99.90;;;;;;5074023;28;20182;-62
2022/04/28 01:32:26;;;;;;;13.77;10.13;;;6.30;99.90;;;;;;5072345;28;20562;-62
2022/04/28 01:34:51;;;;;;;15.00;10.13;;;6.30;99.90;;;;;;5073630;28;20204;-62
2022/04/28 01:37:18;;;;;;;14.03;10.20;;;6.30;99.90;;;;;;5073943;28;20174;-62
2022/04/28 01:39:44;;;;;;;13.53;10.53;;;6.40;99.90;;;;;;5073652;28;20186;-62
2022/04/28 01:42:10;;;;;;;15.93;11.13;;;6.40;99.90;;;;;;5074002;28;20541;-62
2022/04/28 01:44:35;;;;;;;15.27;10.53;;;6.40;99.90;;;;;;5072342;28;20186;-62
2022/04/28 01:47:02;;;;;;;16.20;11.60;;;6.40;99.90;;;;;;5072472;28;20182;-62
2022/04/28 01:49:28;;;;;;;17.17;11.50;;;6.30;99.90;;;;;;5072114;28;20228;-63
2022/04/28 01:57:22;;;;;;;17.20;12.20;;;6.30;99.90;;;;;;5073536;28;20181;-62
2022/04/28 01:59:48;;;;;;;20.43;12.30;;;6.20;99.90;;;;;;5073469;28;20188;-62
2022/04/28 02:02:14;;;;;;;19.57;12.23;;;6.10;99.90;;;;;;5073252;28;20173;-63
2022/04/28 02:04:39;;;;;;;17.37;12.17;;;6.00;99.90;;;;;;5071871;28;20219;-61
2022/04/28 02:07:06;;;;;;;16.77;11.93;;;5.90;99.90;;;;;;5073401;28;20209;-62
2022/04/28 02:09:32;;;;;;;15.17;11.13;;;5.70;99.90;;;;;;5073308;28;20189;-63
2022/04/28 02:11:58;;;;;;;18.40;11.53;;;5.70;99.90;;;;;;5073094;28;20213;-63
2022/04/28 02:14:24;;;;;;;14.27;10.03;;;5.60;99.90;;;;;;5073336;28;20174;-62
2022/04/28 02:16:50;;;;;;;17.60;10.90;;;5.50;99.90;;;;;;5075662;28;20174;-62
2022/04/28 02:19:16;;;;;;;15.03;11.27;;;5.50;99.90;;;;;;5077533;28;20267;-61
2022/04/28 02:21:42;;;;;;;14.93;11.53;;;5.50;99.90;;;;;;5076238;28;20635;-62
2022/04/28 02:24:07;;;;;;;16.57;11.73;;;5.40;99.90;;;;;;5076106;28;20295;-62
2022/04/28 02:26:34;;;;;;;16.63;11.70;;;5.30;99.90;;;;;;5077461;28;20228;-62
2022/04/28 02:28:59;;;;;;;15.90;11.07;;;5.20;99.90;;;;;;5077229;28;20174;-62
2022/04/28 02:31:25;;;;;;;17.23;11.17;;;5.30;99.90;;;;;;5075985;28;20262;-62
2022/04/28 02:33:51;;;;;;;15.10;10.43;;;5.40;99.90;;;;;;5076853;28;20189;-62
2022/04/28 02:36:16;;;;;;;16.53;11.00;;;5.40;99.90;;;;;;5077645;28;20212;-62
2022/04/28 02:38:42;;;;;;;14.70;11.17;;;5.50;99.90;;;;;;5077128;28;20181;-62
2022/04/28 02:41:08;;;;;;;17.93;12.03;;;5.50;99.90;;;;;;5077546;28;20598;-62
2022/04/28 02:43:34;;;;;;;15.60;10.97;;;5.50;99.90;;;;;;5076969;28;20284;-63
2022/04/28 02:46:00;;;;;;;15.03;10.80;;;5.50;99.90;;;;;;5076936;28;20177;-63
2022/04/28 02:48:26;;;;;;;18.30;12.77;;;5.60;99.90;;;;;;5076682;28;20181;-63
2022/04/28 02:50:52;;;;;;;15.43;11.20;;;5.60;99.90;;;;;;5077002;28;20255;-62
2022/04/28 02:53:18;;;;;;;16.00;11.73;;;5.60;99.90;;;;;;5076840;28;20644;-62
2022/04/28 02:55:44;;;;;;;16.63;11.70;;;5.60;99.90;;;;;;5076768;28;20192;-62
2022/04/28 02:58:10;;;;;;;20.27;11.60;;;5.50;99.90;;;;;;5076931;28;20261;-62
2022/04/28 03:00:38;;;;;;;14.87;11.67;;;5.50;99.90;;;;;;5075369;28;20572;-62
2022/04/28 03:03:05;;;;;;;15.70;12.13;;;5.50;99.90;;;;;;5076583;28;20202;-62
2022/04/28 03:05:30;;;;;;;18.33;12.07;;;5.40;99.90;;;;;;5076356;28;20626;-63
2022/04/28 03:10:51;;;;;;;16.23;11.47;;;5.30;99.90;;;;;;5076429;28;20200;-62
2022/04/28 03:13:18;;;;;;;16.07;11.23;;;5.20;99.90;;;;;;5076687;28;20197;-62
2022/04/28 03:15:46;;;;;;;18.97;11.57;;;5.20;99.90;;;;;;5076687;28;20177;-62
2022/04/28 03:18:15;;;;;;;16.27;11.00;;;5.10;99.90;;;;;;5076356;28;20176;-62
2022/04/28 03:20:42;;;;;;;15.30;10.90;;;4.90;99.90;;;;;;5076012;28;20200;-63
2022/04/28 03:23:08;;;;;;;16.70;11.60;;;4.80;99.90;;;;;;5076256;28;20680;-62
2022/04/28 03:25:34;;;;;;;15.40;10.93;;;4.60;99.90;;;;;;5076554;28;20170;-62
2022/04/28 03:28:00;;;;;;;14.47;11.10;;;4.50;99.90;;;;;;5074287;28;20182;-62
2022/04/28 03:30:26;;;;;;;16.80;11.20;;;4.40;99.90;;;;;;5076102;28;20170;-62
2022/04/28 03:32:52;;;;;;;18.17;12.13;;;4.40;99.90;;;;;;5074798;28;20719;-62
2022/04/28 03:35:18;;;;;;;15.70;11.80;;;4.60;99.90;;;;;;5075933;28;20220;-62
2022/04/28 03:37:47;;;;;;;17.67;12.03;;;4.70;99.90;;;;;;5075897;28;20216;-63
2022/04/28 03:40:14;;;;;;;16.90;12.47;;;4.80;99.90;;;;;;5076314;28;20205;-62
2022/04/28 03:42:39;;;;;;;17.37;12.40;;;4.90;99.90;;;;;;5075923;28;20581;-63
2022/04/28 03:45:05;;;;;;;19.13;12.07;;;4.90;99.90;;;;;;5076409;28;20178;-63
2022/04/28 03:47:32;;;;;;;16.53;11.90;;;4.90;99.90;;;;;;5076191;28;20174;-65
2022/04/28 03:49:58;;;;;;;16.77;12.63;;;4.90;99.90;;;;;;5076146;28;20166;-63
2022/04/28 03:52:24;;;;;;;15.63;12.10;;;4.90;99.90;;;;;;5075831;28;20201;-64
2022/04/28 03:54:50;;;;;;;15.97;11.57;;;4.90;99.90;;;;;;5075942;28;20184;-64
2022/04/28 03:57:15;;;;;;;17.90;11.67;;;4.90;99.90;;;;;;5075666;28;20185;-64
2022/04/28 03:59:41;;;;;;;16.47;13.07;;;4.90;99.90;;;;;;5075568;28;20181;-64
2022/04/28 04:02:07;;;;;;;16.63;12.03;;;4.80;99.90;;;;;;5075834;28;20549;-63
2022/04/28 04:04:33;;;;;;;16.97;12.17;;;4.80;99.90;;;;;;5075326;28;20260;-64
2022/04/28 04:06:59;;;;;;;18.47;11.37;;;4.80;99.90;;;;;;5075442;28;20190;-64
2022/04/28 04:09:24;;;;;;;17.33;12.93;;;4.80;99.90;;;;;;5075319;28;20186;-63
2022/04/28 04:11:51;;;;;;;18.60;12.67;;;4.80;99.90;;;;;;5073911;28;20283;-64
2022/04/28 04:14:17;;;;;;;16.10;12.07;;;4.80;99.90;;;;;;5075364;28;20588;-64
2022/04/28 04:16:42;;;;;;;17.03;12.03;;;4.80;99.90;;;;;;5075763;28;20158;-64
2022/04/28 04:19:08;;;;;;;19.10;12.10;;;4.80;99.90;;;;;;5075005;28;20178;-64
2022/04/28 04:21:34;;;;;;;18.73;13.43;;;4.70;99.90;;;;;;5075428;28;20174;-64
2022/04/28 04:24:00;;;;;;;21.57;13.07;;;4.70;99.90;;;;;;5074943;28;20236;-64
2022/04/28 04:26:25;;;;;;;14.70;11.47;;;4.60;99.90;;;;;;5075140;28;20184;-64
2022/04/28 04:28:51;;;;;;;16.63;12.37;;;4.60;99.90;;;;;;5075604;28;20227;-64
2022/04/28 04:34:06;;;;;;;16.73;12.70;;;4.60;99.90;;;;;;5065076;28;20220;-64
2022/04/28 04:36:31;;;;;;;17.27;12.50;;;4.70;99.90;;;;;;5076226;28;20170;-64
2022/04/28 04:38:57;;;;;;;16.03;12.37;;;4.70;99.90;;;;;;5075916;28;20181;-64
2022/04/28 04:41:23;;;;;;;15.37;12.73;;;4.80;99.90;;;;;;5073803;28;20177;-64
2022/04/28 04:43:48;;;;;;;17.43;12.67;;;4.80;99.90;;;;;;5075523;28;20243;-64
2022/04/28 04:46:14;;;;;;;16.97;12.47;;;4.80;99.90;;;;;;5073643;28;20187;-64
2022/04/28 04:48:40;;;;;;;21.43;13.23;;;4.80;99.90;;;;;;5074901;28;20186;-64
2022/04/28 04:51:06;;;;;;;16.17;11.63;;;4.80;99.90;;;;;;5074240;28;20288;-64
2022/04/28 04:53:31;;;;;;;23.13;12.40;;;4.80;99.90;;;;;;5074695;28;20198;-64
2022/04/28 04:55:57;;;;;;;18.43;12.13;;;4.80;99.90;;;;;;5074662;28;20223;-64
2022/04/28 04:58:23;;;;;;;16.20;11.73;;;4.70;99.90;;;;;;5074827;28;20178;-64
2022/04/28 05:00:49;;;;;;;17.20;11.67;;;4.60;99.90;;;;;;5074605;28;20240;-63
2022/04/28 05:03:14;;;;;;;15.33;11.00;;;4.60;99.90;;;;;;5074299;28;20198;-63
2022/04/28 05:05:42;;;;;;;15.47;11.57;;;4.50;99.90;;;;;;5074121;28;20169;-63
2022/04/28 05:08:08;;;;;;;16.50;12.40;;;4.50;99.90;;;;;;5074052;28;20204;-63
2022/04/28 05:10:33;;;;;;;16.47;12.10;;;4.50;99.90;;;;;;5073903;28;20186;-62
2022/04/28 05:12:59;;;;;;;17.27;11.40;;;4.50;99.90;;;;;;5074301;28;20197;-63
2022/04/28 05:15:25;;;;;;;13.60;10.60;;;4.60;99.90;;;;;;5074560;28;20249;-63
2022/04/28 05:17:50;;;;;;;16.63;12.23;;;4.60;99.90;;;;;;5074189;28;20218;-63
2022/04/28 05:20:16;;;;;;;13.63;11.20;;;4.60;99.90;;;;;;5073873;28;20296;-63
2022/04/28 05:22:42;;;;;;;13.47;11.03;;;4.70;99.90;;;;;;5072612;28;20224;-63
2022/04/28 05:25:08;;;;;;;18.13;11.60;;;4.70;99.90;;;;;;5075863;28;20174;-62
2022/04/28 05:27:33;;;;;;;17.07;11.57;;;4.80;99.90;;;;;;5074409;28;20564;-63
2022/04/28 05:29:59;;;;;;;14.20;11.30;;;4.80;99.90;;;;;;5073889;28;20173;-63
2022/04/28 05:32:25;;;;;;;14.73;11.50;;;5.00;99.90;;;;;;5073909;28;20207;-63
2022/04/28 05:34:50;;;;;;;15.73;11.73;;;5.00;99.90;;;;;;5074138;28;20212;-63
2022/04/28 05:37:16;;;;;;;16.90;12.30;;;5.20;99.90;;;;;;5074572;28;20151;-63
2022/04/28 05:39:43;;;;;;;16.83;12.87;;;5.30;99.90;;;;;;5073645;28;20571;-63
2022/04/28 05:42:09;;;;;;;20.20;13.63;;;5.40;99.90;;;;;;5073602;28;20259;-63
2022/04/28 05:47:20;;;;;;;18.23;12.60;;;5.60;99.90;;;;;;5073678;28;20176;-63
2022/04/28 05:49:46;;;;;;;18.10;12.77;;;5.60;99.90;;;;;;5073391;28;20177;-62
2022/04/28 05:52:12;;;;;;;18.03;13.03;;;5.70;99.90;;;;;;5073300;28;20201;-63
2022/04/28 05:54:40;;;;;;;19.03;13.37;;;5.80;99.90;;;;;;5073613;28;20177;-63
2022/04/28 05:57:06;;;;;;;20.93;14.40;;;5.90;99.90;;;;;;5073866;28;20157;-62
2022/04/28 05:59:32;;;;;;;22.93;15.87;;;6.00;99.90;;;;;;5072266;28;20665;-63
2022/04/28 06:01:58;;;;;;;23.27;15.70;;;6.10;99.90;;;;;;5073833;28;20162;-62
2022/04/28 06:04:23;;;;;;;23.27;16.13;;;6.20;99.90;;;;;;5073732;28;20765;-63
2022/04/28 06:06:49;;;;;;;24.27;15.50;;;6.40;99.90;;;;;;5073852;28;20178;-63
2022/04/28 06:09:15;;;;;;;24.80;15.33;;;6.50;99.90;;;;;;5073556;28;20202;-63
2022/04/28 06:11:41;;;;;;;22.83;14.80;;;6.60;99.90;;;;;;5071917;28;20294;-63
2022/04/28 06:14:08;;;;;;;23.53;15.03;;;6.70;99.90;;;;;;5073210;28;20601;-63
2022/04/28 06:16:33;;;;;;;25.03;16.63;;;6.80;99.90;;;;;;5073972;28;20162;-63
2022/04/28 06:18:59;;;;;;;25.10;15.70;;;6.90;99.90;;;;;;5073582;28;20173;-64
2022/04/28 06:21:25;;;;;;;23.33;16.50;;;7.00;99.90;;;;;;5072978;28;20174;-63
2022/04/28 06:23:50;;;;;;;24.50;16.70;;;7.10;99.90;;;;;;5073455;28;20686;-63
2022/04/28 06:26:16;;;;;;;28.17;16.87;;;7.30;99.90;;;;;;5073653;28;20193;-63
2022/04/28 06:28:42;;;;;;;23.90;16.30;;;7.40;99.90;;;;;;5073522;28;20599;-63
2022/04/28 06:31:08;;;;;;;23.40;15.57;;;7.50;99.90;;;;;;5073356;28;20204;-63
2022/04/28 06:33:34;;;;;;;24.50;15.93;;;7.70;99.90;;;;;;5071766;28;20569;-63
2022/04/28 06:35:59;;;;;;;20.00;14.87;;;7.80;99.90;;;;;;5072456;28;20213;-63
2022/04/28 06:38:25;;;;;;;25.67;15.00;;;7.90;99.90;;;;;;5072933;28;20221;-64
2022/04/28 06:40:51;;;;;;;22.07;14.63;;;8.00;99.90;;;;;;5073048;28;20170;-63
2022/04/28 06:43:18;;;;;;;23.90;15.30;;;8.10;99.90;;;;;;5072995;28;20546;-63
2022/04/28 06:46:11;;;;;;;21.70;14.03;;;8.30;99.90;;;;;;5073593;28;20154;-63
2022/04/28 06:48:29;;;;;;;20.63;14.20;;;8.40;99.90;;;;;;5072844;28;20264;-63
2022/04/28 06:50:55;;;;;;;21.60;14.70;;;8.50;99.90;;;;;;5072824;28;20648;-63
2022/04/28 06:53:21;;;;;;;20.93;14.63;;;8.60;99.90;;;;;;5072993;28;20205;-64
2022/04/28 06:55:47;;;;;;;23.80;14.93;;;8.80;99.90;;;;;;5072993;28;20283;-64
2022/04/28 06:58:12;;;;;;;26.93;15.13;;;9.00;99.90;;;;;;5073172;28;20515;-63
2022/04/28 07:00:38;;;;;;;27.03;15.13;;;9.10;99.90;;;;;;5072926;28;20174;-64
2022/04/28 07:03:04;;;;;;;22.03;15.67;;;9.10;99.90;;;;;;5073659;28;20263;-64
2022/04/28 07:05:30;;;;;;;22.70;14.57;;;9.30;99.90;;;;;;5076511;28;20231;-64
2022/04/28 07:07:55;;;;;;;24.03;15.00;;;9.30;99.90;;;;;;5076502;28;20182;-64
2022/04/28 07:10:21;;;;;;;22.93;14.57;;;9.40;99.90;;;;;;5076328;28;20314;-64
2022/04/28 07:12:47;;;;;;;21.47;14.37;;;9.50;99.90;;;;;;5076728;28;20274;-63
2022/04/28 07:15:13;;;;;;;22.13;14.93;;;9.60;99.90;;;;;;5076807;28;20630;-63
2022/04/28 07:17:38;;;;;;;21.53;14.90;;;9.60;99.90;;;;;;5076572;28;20722;-64
2022/04/28 07:20:04;;;;;;;23.60;14.03;;;9.70;99.90;;;;;;5076553;28;20155;-63
2022/04/28 07:22:30;;;;;;;23.70;16.03;;;9.90;99.90;;;;;;5076704;28;20198;-63
2022/04/28 07:24:56;;;;;;;22.13;15.33;;;10.00;99.90;;;;;;5076608;28;20677;-64
2022/04/28 07:27:21;;;;;;;23.43;15.83;;;10.10;99.90;;;;;;5076298;28;20189;-62
2022/04/28 07:29:47;;;;;;;21.60;14.63;;;10.20;99.90;;;;;;5076292;28;20189;-63
2022/04/28 07:32:13;;;;;;;21.43;15.00;;;10.30;99.90;;;;;;5074812;28;20292;-63
2022/04/28 07:34:38;;;;;;;22.37;14.93;;;10.40;99.90;;;;;;5076541;28;20259;-62
2022/04/28 07:37:04;;;;;;;29.17;17.17;;;10.50;99.90;;;;;;5076327;28;20648;-63
2022/04/28 07:39:30;;;;;;;22.07;14.47;;;10.60;99.90;;;;;;5076098;28;20182;-64
2022/04/28 07:41:56;;;;;;;23.17;15.53;;;10.70;99.90;;;;;;5075966;28;20213;-63
2022/04/28 07:44:22;;;;;;;23.80;15.33;;;10.70;99.90;;;;;;5076031;28;20204;-63
2022/04/28 07:46:47;;;;;;;23.30;15.67;;;10.90;99.90;;;;;;5075965;28;20170;-62
2022/04/28 07:49:13;;;;;;;25.33;15.53;;;11.00;99.90;;;;;;5075720;28;20212;-63
2022/04/28 07:51:39;;;;;;;22.43;15.47;;;11.00;99.90;;;;;;5075558;28;20205;-62
2022/04/28 07:54:05;;;;;;;27.83;16.40;;;11.00;99.90;;;;;;5075972;28;20224;-65
2022/04/28 07:56:31;;;;;;;22.07;14.73;;;11.10;99.90;;;;;;5076363;28;20184;-64
2022/04/28 07:58:56;;;;;;;23.53;15.13;;;11.20;99.90;;;;;;5076299;28;20169;-63
2022/04/28 08:01:22;;;;;;;26.07;15.70;;;11.20;99.90;;;;;;5076862;28;20622;-63
2022/04/28 08:03:49;;;;;;;24.30;16.20;;;11.30;99.90;;;;;;5075548;28;20288;-64
2022/04/28 08:06:15;;;;;;;24.00;16.83;;;11.50;99.90;;;;;;5076319;28;20232;-64
2022/04/28 08:08:41;;;;;;;26.10;15.60;;;11.50;99.90;;;;;;5075542;28;20666;-63
2022/04/28 08:11:08;;;;;;;23.03;14.77;;;11.40;99.90;;;;;;5073956;28;20210;-63
2022/04/28 08:13:34;;;;;;;24.03;15.63;;;11.60;99.90;;;;;;5073943;28;20205;-63
2022/04/28 08:16:01;;;;;;;23.33;14.43;;;11.50;99.90;;;;;;5075130;28;20205;-68
2022/04/28 08:18:29;;;;;;;23.87;14.90;;;11.60;99.90;;;;;;5075297;28;20170;-62
2022/04/28 08:20:55;;;;;;;25.77;15.23;;;11.60;99.90;;;;;;5074902;28;20249;-64
2022/04/28 08:23:21;;;;;;;25.50;15.70;;;11.80;99.90;;;;;;5075002;28;20213;-64
2022/04/28 08:25:47;;;;;;;21.33;13.65;;;12.60;99.90;;;;;;5075350;28;20578;-64
2022/04/28 08:28:13;;;;;;;19.75;13.77;;;14.00;99.90;;;;;;5074967;28;20178;-64
2022/04/28 08:30:39;;;;;;;21.50;13.88;;;14.80;99.90;;;;;;5075337;28;20201;-65
2022/04/28 08:33:05;;;;;;;22.25;14.50;;;15.70;99.90;;;;;;5075129;28;20237;-64
2022/04/28 08:35:31;;;;;;;19.63;13.85;;;16.50;99.90;;;;;;5074922;28;20154;-64
2022/04/28 08:37:57;;;;;;;22.25;14.05;;;16.70;99.90;;;;;;5074657;28;20258;-64
2022/04/28 08:40:24;;;;;;;20.30;13.95;;;16.70;99.90;;;;;;5075388;28;20611;-64
2022/04/28 08:42:50;;;;;;;18.60;12.77;;;16.80;99.90;;;;;;5074835;28;20198;-65
2022/04/28 08:45:28;;;;;;;22.42;14.85;;;16.80;99.90;;;;;;5075230;28;20180;-64
2022/04/28 08:47:58;;;;;;;16.38;13.63;;;17.00;99.90;;;;;;5075038;28;20154;-64
2022/04/28 08:50:24;;;;;;;18.23;13.52;;;16.90;99.90;;;;;;5074396;28;20631;-65
2022/04/28 08:52:53;;;;;;;21.23;15.57;;;16.70;99.90;;;;;;5073284;28;20266;-64
2022/04/28 08:55:20;;;;;;;19.27;14.05;;;16.30;99.90;;;;;;5074674;28;20170;-64
2022/04/28 08:57:45;;;;;;;18.92;14.05;;;16.00;99.90;;;;;;5073249;28;20178;-64
2022/04/28 09:00:12;;;;;;;22.60;14.27;;;15.40;99.90;;;;;;5073173;28;20188;-64
2022/04/28 09:02:39;;;;;;;22.00;14.13;;;15.40;99.90;;;;;;5074536;28;20190;-65
2022/04/28 09:05:07;;;;;;;22.85;14.45;;;15.40;99.90;;;;;;5072796;28;20186;-64
2022/04/28 09:07:38;;;;;;;19.52;13.85;;;15.20;99.90;;;;;;5072947;28;20178;-64
2022/04/28 09:10:30;;;;;;;18.55;14.38;;;15.20;99.90;;;;;;5072875;28;20182;-65
2022/04/28 09:12:57;;;;;;;21.08;13.95;;;15.50;99.90;;;;;;5074295;28;20681;-64
2022/04/28 09:15:23;;;;;;;20.40;14.65;;;15.20;99.90;;;;;;5072871;28;20173;-64
2022/04/28 09:17:49;;;;;;;21.35;15.30;;;15.30;99.90;;;;;;5074104;28;20531;-64
2022/04/28 09:20:15;;;;;;;18.13;13.73;;;15.30;99.90;;;;;;5073757;28;20170;-64
2022/04/28 09:22:42;;;;;;;19.00;12.95;;;15.20;99.90;;;;;;5074178;28;20212;-64
2022/04/28 09:25:09;;;;;;;20.30;13.75;;;15.50;99.90;;;;;;5074253;28;20603;-64
2022/04/28 09:27:35;;;;;;;21.95;14.43;;;15.60;99.90;;;;;;5072042;28;20186;-64
2022/04/28 09:30:01;;;;;;;23.02;14.25;;;15.80;99.90;;;;;;5073912;28;20631;-64
2022/04/28 09:32:27;;;;;;;17.77;12.80;;;15.70;99.90;;;;;;5073796;28;20227;-64
2022/04/28 09:34:53;;;;;;;21.23;12.80;;;15.40;99.90;;;;;;5073578;28;20269;-64
2022/04/28 09:37:26;;;;;;;22.73;13.85;;;15.70;99.90;;;;;;5074373;28;20201;-64
2022/04/28 09:42:42;;;;;;;22.73;14.43;;;15.60;99.90;;;;;;5073920;28;20255;-64
2022/04/28 09:45:11;;;;;;;17.38;13.15;;;15.60;99.90;;;;;;5073818;28;20162;-64
2022/04/28 09:47:37;;;;;;;18.00;12.52;;;15.60;99.90;;;;;;5073740;28;20633;-64
2022/04/28 09:50:17;;;;;;;18.58;13.25;;;15.90;99.90;;;;;;5073742;28;20166;-64
2022/04/28 09:52:44;;;;;;;17.33;12.50;;;15.90;99.90;;;;;;5073748;28;20208;-64
2022/04/28 09:55:10;;;;;;;20.88;12.75;;;16.10;99.90;;;;;;5073931;28;20177;-64
2022/04/28 09:57:36;;;;;;;20.38;12.43;;;16.40;99.90;;;;;;5073917;28;20611;-64
2022/04/28 10:00:03;;;;;;;18.42;12.55;;;16.30;99.90;;;;;;5073566;28;20247;-64
2022/04/28 10:02:28;;;;;;;18.13;12.85;;;16.30;99.90;;;;;;5073789;28;20194;-65
2022/04/28 10:04:55;;;;;;;17.08;12.80;;;16.30;99.90;;;;;;5072036;28;20178;-65
2022/04/28 10:07:23;;;;;;;15.88;12.57;;;16.20;99.90;;;;;;5073737;28;20614;-64
2022/04/28 10:09:50;;;;;;;16.73;12.77;;;16.40;99.90;;;;;;5073324;28;20162;-64
2022/04/28 10:12:22;;;;;;;16.83;13.55;;;16.40;99.90;;;;;;5073145;28;20209;-64
2022/04/28 10:14:49;;;;;;;20.88;14.05;;;16.10;99.90;;;;;;5072238;28;20166;-64
2022/04/28 10:17:29;;;;;;;21.05;13.70;;;16.20;99.90;;;;;;5073921;28;20200;-64
2022/04/28 10:20:23;;;;;;;18.73;13.52;;;16.40;99.90;;;;;;5073680;28;20224;-64
2022/04/28 10:22:52;;;;;;;20.65;14.23;;;16.60;99.90;;;;;;5072367;28;20209;-64
2022/04/28 10:34:12;;;;;;;15.70;12.15;;;16.80;99.90;;;;;;5073877;28;20250;-64
2022/04/28 10:36:57;;;;;;;19.48;12.95;;;17.10;99.90;;;;;;5072952;28;20154;-64
2022/04/28 10:39:45;;;;;;;19.98;13.05;;;17.20;99.90;;;;;;5075922;28;20178;-64
2022/04/28 10:42:21;;;;;;;19.10;13.40;;;17.20;99.90;;;;;;5077640;28;20154;-64
2022/04/28 10:44:57;;;;;;;20.63;14.00;;;17.40;99.90;;;;;;5077085;28;20200;-64
2022/04/28 10:47:33;;;;;;;23.25;14.13;;;17.50;99.90;;;;;;5077400;28;20207;-64
2022/04/28 10:49:59;;;;;;;20.60;13.48;;;17.00;99.90;;;;;;5077045;28;20659;-64
2022/04/28 10:52:26;;;;;;;21.60;14.68;;;17.10;99.90;;;;;;5075633;28;20214;-64
2022/04/28 10:55:01;;;;;;;18.73;13.30;;;17.20;99.90;;;;;;5076902;28;20173;-64
2022/04/28 10:57:37;;;;;;;20.83;13.43;;;17.20;99.90;;;;;;5076988;28;20219;-64
2022/04/28 11:00:04;;;;;;;20.80;13.57;;;17.40;99.90;;;;;;5077090;28;20679;-64
2022/04/28 11:02:34;;;;;;;19.55;13.48;;;17.50;99.90;;;;;;5075449;28;20569;-64
2022/04/28 11:05:21;;;;;;;18.45;13.68;;;17.70;99.90;;;;;;5076345;28;20691;-64
2022/04/28 11:07:47;;;;;;;19.83;13.18;;;17.80;99.90;;;;;;5075240;28;20186;-64
2022/04/28 11:10:13;;;;;;;18.17;13.90;;;18.00;99.90;;;;;;5076375;28;20185;-64
2022/04/28 11:12:43;;;;;;;17.27;12.57;;;18.10;99.90;;;;;;5076674;28;20216;-64
2022/04/28 11:15:13;;;;;;;19.92;13.95;;;18.20;99.90;;;;;;5075191;28;20174;-64
2022/04/28 11:17:41;;;;;;;20.33;14.35;;;18.20;99.90;;;;;;5076520;28;20223;-64
2022/04/28 11:20:12;;;;;;;23.13;14.50;;;17.60;99.90;;;;;;5076577;28;20157;-64
2022/04/28 11:22:45;;;;;;;21.20;13.20;;;17.20;99.90;;;;;;5076673;28;20189;-63
2022/04/28 11:25:13;;;;;;;18.58;12.85;;;17.00;99.90;;;;;;5076792;28;20229;-64
2022/04/28 11:27:39;;;;;;;22.00;13.50;;;17.10;99.90;;;;;;5077083;28;20180;-64
2022/04/28 11:30:05;;;;;;;20.30;12.73;;;17.30;99.90;;;;;;5076594;28;20178;-64
2022/04/28 11:32:31;;;;;;;19.17;13.27;;;17.20;99.90;;;;;;5078903;28;20246;-64
2022/04/28 11:34:58;;;;;;;18.55;12.75;;;17.40;99.90;;;;;;5077455;28;20178;-64
2022/04/28 11:37:27;;;;;;;18.08;11.90;;;18.00;99.90;;;;;;5077784;28;20166;-64
2022/04/28 11:39:55;;;;;;;22.55;14.68;;;18.00;99.90;;;;;;5077124;28;20166;-64
2022/04/28 11:42:24;;;;;;;19.27;13.15;;;18.50;99.90;;;;;;5076178;28;20181;-64
2022/04/28 11:44:55;;;;;;;22.83;12.90;;;18.60;99.90;;;;;;5076141;28;20177;-64
2022/04/28 11:47:23;;;;;;;17.88;12.77;;;18.30;99.90;;;;;;5076210;28;20154;-64
2022/04/28 11:49:56;;;;;;;17.23;11.25;;;18.10;99.90;;;;;;5075312;28;20178;-65
2022/04/28 11:52:27;;;;;;;21.05;13.27;;;18.70;99.90;;;;;;5075478;28;20193;-64
2022/04/28 11:55:08;;;;;;;18.33;12.50;;;19.20;99.90;;;;;;5075770;28;20173;-65
2022/04/28 11:57:36;;;;;;;20.23;13.15;;;19.50;99.90;;;;;;5076094;28;20608;-64
2022/04/28 12:00:06;;;;;;;16.98;12.23;;;19.40;99.90;;;;;;5074388;28;20691;-64
2022/04/28 12:02:34;;;;;;;19.10;13.27;;;19.30;99.90;;;;;;5075612;28;20201;-64
2022/04/28 12:05:14;;;;;;;19.02;11.75;;;19.90;99.90;;;;;;5075908;28;20177;-64
2022/04/28 12:07:42;;;;;;;21.05;13.23;;;20.10;99.90;;;;;;5075870;28;20212;-64
2022/04/28 12:15:37;;;;;;;14.77;11.13;;;21.10;99.90;;;;;;5075340;28;20233;-64
2022/04/28 12:21:01;;;;;;;20.30;13.35;;;21.20;99.90;;;;;;5075357;28;20189;-64
2022/04/28 12:23:32;;;;;;;16.52;12.00;;;21.60;99.90;;;;;;5075089;28;20201;-64
2022/04/28 12:26:05;;;;;;;20.55;12.68;;;21.80;99.90;;;;;;5075411;28;20178;-65
2022/04/28 12:28:38;;;;;;;18.08;12.45;;;22.10;99.90;;;;;;5073727;28;20600;-64
2022/04/28 12:31:05;;;;;;;14.65;10.88;;;21.90;99.90;;;;;;5073715;28;20216;-64
2022/04/28 12:33:35;;;;;;;18.15;12.73;;;22.30;99.90;;;;;;5074960;28;20190;-64
2022/04/28 12:36:06;;;;;;;18.67;12.93;;;22.40;99.90;;;;;;5074862;28;20170;-64
2022/04/28 12:38:35;;;;;;;18.13;12.85;;;22.10;99.90;;;;;;5074890;28;20178;-64
2022/04/28 12:41:27;;;;;;;19.00;12.75;;;21.50;99.90;;;;;;5073470;28;20268;-65
2022/04/28 12:43:56;;;;;;;17.67;11.63;;;21.70;99.90;;;;;;5073352;28;20201;-64
2022/04/28 12:46:38;;;;;;;14.60;11.57;;;21.90;99.90;;;;;;5074726;28;20224;-65
2022/04/28 12:49:09;;;;;;;16.77;11.73;;;22.00;99.90;;;;;;5074658;28;20181;-64
2022/04/28 12:51:50;;;;;;;16.50;12.25;;;22.00;99.90;;;;;;5074330;28;20189;-64
2022/04/28 12:54:19;;;;;;;18.00;13.25;;;21.30;99.90;;;;;;5074555;28;20222;-64
2022/04/28 12:56:52;;;;;;;21.45;12.82;;;21.20;99.90;;;;;;5074529;28;20174;-64
2022/04/28 12:59:18;;;;;;;20.42;13.05;;;21.70;99.90;;;;;;5074665;28;20153;-64
2022/04/28 13:01:46;;;;;;;19.08;13.82;;;21.70;99.90;;;;;;5073407;28;20162;-64
2022/04/28 13:04:21;;;;;;;19.50;13.32;;;21.90;99.90;;;;;;5074291;28;20196;-64
2022/04/28 13:06:47;;;;;;;19.17;13.68;;;21.90;99.90;;;;;;5074099;28;20161;-64
2022/04/28 13:09:15;;;;;;;18.65;13.18;;;22.00;99.90;;;;;;5074408;28;20550;-65
2022/04/28 13:11:42;;;;;;;21.73;14.23;;;22.60;99.90;;;;;;5074164;28;20583;-64